Time;durP1;ratioP1;P1;durP2;ratioP2;P2;SDS_P1;SDS_P2;PMS_P1;PMS_P2;Temp;Humidity;BMP_temperature;BMP_pressure;BME280_temperature;BME280_humidity;BME280_pressure;Samples;Min_cycle;Max_cycle;Signal;HPM_P1;HPM_P2
2021/10/16 00:00:27;;;;;;;;;;;;;;;;;;5016494;28;19933;-69
2021/10/16 00:02:54;;;;;;;;;;;;;;;;;;5014791;28;19972;-68
2021/10/16 00:05:21;;;;;;;;;;;;;;;;;;5012490;28;19926;-68
2021/10/16 00:07:48;;;;;;;;;;;;;;;;;;5009848;28;20364;-68
2021/10/16 00:10:15;;;;;;;;;;;;;;;;;;5012475;28;19971;-69
2021/10/16 00:12:42;;;;;;;;;;;;;;;;;;5019729;28;20014;-67
2021/10/16 00:15:09;;;;;;;;;;;;;;;;;;5014754;28;19951;-68
2021/10/16 00:17:36;;;;;;;;;;;;;;;;;;5014569;28;19926;-67
2021/10/16 00:20:03;;;;;;;;;;;;;;;;;;5006803;28;19937;-67
2021/10/16 00:22:30;;;;;;;;;;;;;;;;;;5009726;28;20015;-65
2021/10/16 00:24:57;;;;;;;;;;;;;;;;;;5015567;28;19930;-67
2021/10/16 00:27:24;;;;;;;;;;;;;;;;;;5014128;28;19933;-68
2021/10/16 00:29:51;;;;;;;;;;;;;;;;;;5014835;28;19926;-67
2021/10/16 00:32:18;;;;;;;;;;;;;;;;;;5012618;28;19926;-67
2021/10/16 00:34:45;;;;;;;;;;;;;;;;;;5012129;28;19926;-67
2021/10/16 00:37:12;;;;;;;;;;;;;;;;;;5011212;28;19941;-67
2021/10/16 00:39:39;;;;;;;;;;;;;;;;;;5013693;28;19925;-67
2021/10/16 00:42:07;;;;;;;;;;;;;;;;;;5019556;28;19925;-66
2021/10/16 00:44:34;;;;;;;;;;;;;;;;;;5016799;28;20271;-67
2021/10/16 00:47:01;;;;;;;;;;;;;;;;;;5014079;28;19932;-66
2021/10/16 00:49:28;;;;;;;;;;;;;;;;;;5012313;28;19926;-69
2021/10/16 00:51:55;;;;;;;;;;;;;;;;;;5011990;28;19929;-68
2021/10/16 00:54:22;;;;;;;;;;;;;;;;;;5017965;28;20375;-67
2021/10/16 00:56:49;;;;;;;;;;;;;;;;;;5013256;28;19932;-68
2021/10/16 00:59:16;;;;;;;;;;;;;;;;;;5017488;28;19926;-68
2021/10/16 01:01:43;;;;;;;;;;;;;;;;;;5022003;28;19931;-66
2021/10/16 01:04:10;;;;;;;;;;;;;;;;;;5016229;28;20373;-68
2021/10/16 01:06:37;;;;;;;;;;;;;;;;;;5019388;28;19952;-67
2021/10/16 01:09:08;;;;;;;;;;;;;;;;;;5021280;28;19925;-67
2021/10/16 01:11:35;;;;;;;;;;;;;;;;;;5016875;28;19925;-67
2021/10/16 01:14:02;;;;;;;;;;;;;;;;;;5017855;28;20390;-67
2021/10/16 01:16:29;;;;;;;;;;;;;;;;;;5016772;28;19976;-67
2021/10/16 01:18:56;;;;;;;;;;;;;;;;;;5014502;28;19925;-67
2021/10/16 01:21:23;;;;;;;;;;;;;;;;;;5011696;28;20301;-68
2021/10/16 01:23:50;;;;;;;;;;;;;;;;;;5016442;28;19969;-68
2021/10/16 01:26:16;;;;;;;;;;;;;;;;;;5014740;28;20334;-68
2021/10/16 01:28:43;;;;;;;;;;;;;;;;;;5010430;28;19932;-66
2021/10/16 01:31:10;;;;;;;;;;;;;;;;;;5016369;28;20140;-68
2021/10/16 01:33:37;;;;;;;;;;;;;;;;;;5020437;28;20488;-65
2021/10/16 01:36:04;;;;;;;;;;;;;;;;;;5017387;28;19948;-68
2021/10/16 01:38:31;;;;;;;;;;;;;;;;;;5012984;28;19945;-68
2021/10/16 01:40:58;;;;;;;;;;;;;;;;;;5013088;28;19941;-68
2021/10/16 01:43:25;;;;;;;;;;;;;;;;;;5011850;28;19929;-68
2021/10/16 01:45:52;;;;;;;;;;;;;;;;;;5018750;28;19949;-68
2021/10/16 01:48:19;;;;;;;;;;;;;;;;;;5018424;28;19924;-68
2021/10/16 01:50:46;;;;;;;;;;;;;;;;;;5015313;28;19978;-68
2021/10/16 01:53:13;;;;;;;;;;;;;;;;;;5012758;28;19933;-66
2021/10/16 01:55:40;;;;;;;;;;;;;;;;;;5013754;28;19996;-68
2021/10/16 01:58:07;;;;;;;;;;;;;;;;;;5017203;28;19929;-68
2021/10/16 02:00:34;;;;;;;;;;;;;;;;;;5017687;28;19925;-69
2021/10/16 02:03:01;;;;;;;;;;;;;;;;;;5017200;28;19926;-68
2021/10/16 02:05:28;;;;;;;;;;;;;;;;;;5018092;28;19929;-68
2021/10/16 02:07:55;;;;;;;;;;;;;;;;;;5019050;28;19925;-68
2021/10/16 02:10:22;;;;;;;;;;;;;;;;;;5017515;28;19933;-68
2021/10/16 02:12:49;;;;;;;;;;;;;;;;;;5017531;28;19932;-67
2021/10/16 02:15:16;;;;;;;;;;;;;;;;;;5014020;28;19925;-67
2021/10/16 02:17:43;;;;;;;;;;;;;;;;;;5013683;28;19925;-67
2021/10/16 02:20:10;;;;;;;;;;;;;;;;;;5018375;28;19925;-67
2021/10/16 02:22:37;;;;;;;;;;;;;;;;;;5014642;28;19984;-68
2021/10/16 02:25:04;;;;;;;;;;;;;;;;;;5018700;28;19926;-68
2021/10/16 02:27:31;;;;;;;;;;;;;;;;;;5016633;28;19925;-67
2021/10/16 02:29:58;;;;;;;;;;;;;;;;;;5011494;28;19932;-67
2021/10/16 02:32:25;;;;;;;;;;;;;;;;;;5015331;28;20432;-68
2021/10/16 02:34:52;;;;;;;;;;;;;;;;;;5018059;28;20024;-67
2021/10/16 02:37:19;;;;;;;;;;;;;;;;;;5020517;28;20217;-67
2021/10/16 02:39:46;;;;;;;;;;;;;;;;;;5014255;28;20400;-68
2021/10/16 02:42:13;;;;;;;;;;;;;;;;;;5017143;28;19963;-68
2021/10/16 02:44:40;;;;;;;;;;;;;;;;;;5012146;28;19926;-67
2021/10/16 02:47:07;;;;;;;;;;;;;;;;;;5018057;28;20036;-67
2021/10/16 02:49:34;;;;;;;;;;;;;;;;;;5015110;28;20026;-67
2021/10/16 02:52:01;;;;;;;;;;;;;;;;;;5018013;28;20382;-66
2021/10/16 02:54:28;;;;;;;;;;;;;;;;;;5016070;28;20285;-68
2021/10/16 02:56:55;;;;;;;;;;;;;;;;;;5016101;28;20297;-68
2021/10/16 02:59:22;;;;;;;;;;;;;;;;;;5016026;28;19926;-68
2021/10/16 03:01:49;;;;;;;;;;;;;;;;;;5019463;28;19932;-68
2021/10/16 03:04:16;;;;;;;;;;;;;;;;;;5013449;28;19925;-68
2021/10/16 03:06:43;;;;;;;;;;;;;;;;;;5014800;28;19933;-68
2021/10/16 03:09:11;;;;;;;;;;;;;;;;;;5015069;28;19925;-68
2021/10/16 03:11:38;;;;;;;;;;;;;;;;;;5018866;28;19975;-67
2021/10/16 03:14:05;;;;;;;;;;;;;;;;;;5014029;28;20015;-68
2021/10/16 03:16:32;;;;;;;;;;;;;;;;;;5012225;28;19929;-68
2021/10/16 03:18:59;;;;;;;;;;;;;;;;;;5015774;28;20323;-67
2021/10/16 03:21:26;;;;;;;;;;;;;;;;;;5012760;28;19925;-67
2021/10/16 03:23:53;;;;;;;;;;;;;;;;;;5013475;28;19931;-66
2021/10/16 03:26:20;;;;;;;;;;;;;;;;;;5017863;28;19925;-68
2021/10/16 03:28:47;;;;;;;;;;;;;;;;;;5015756;28;20028;-68
2021/10/16 03:31:14;;;;;;;;;;;;;;;;;;5010814;28;20321;-65
2021/10/16 03:33:40;;;;;;;;;;;;;;;;;;5013514;28;20307;-67
2021/10/16 03:36:07;;;;;;;;;;;;;;;;;;5015634;28;19952;-68
2021/10/16 03:38:34;;;;;;;;;;;;;;;;;;5010200;28;19937;-68
2021/10/16 03:41:01;;;;;;;;;;;;;;;;;;5014810;28;19925;-67
2021/10/16 03:43:28;;;;;;;;;;;;;;;;;;5029305;22;20380;-57
2021/10/16 03:45:55;;;;;;;;;;;;;;;;;;5026060;28;19925;-60
2021/10/16 03:48:22;;;;;;;;;;;;;;;;;;5029134;28;19925;-60
2021/10/16 03:50:49;;;;;;;;;;;;;;;;;;5025733;28;20012;-56
2021/10/16 03:53:17;;;;;;;;;;;;;;;;;;5023983;28;20024;-58
2021/10/16 03:55:44;;;;;;;;;;;;;;;;;;5022342;28;19997;-59
2021/10/16 03:58:11;;;;;;;;;;;;;;;;;;5025177;28;19933;-58
2021/10/16 04:00:38;;;;;;;;;;;;;;;;;;5027123;28;20023;-57
2021/10/16 04:03:06;;;;;;;;;;;;;;;;;;5021973;28;20384;-57
2021/10/16 04:05:33;;;;;;;;;;;;;;;;;;5024041;28;19965;-58
2021/10/16 04:08:00;;;;;;;;;;;;;;;;;;5022084;28;19929;-59
2021/10/16 04:10:27;;;;;;;;;;;;;;;;;;5026463;28;20382;-59
2021/10/16 04:12:54;;;;;;;;;;;;;;;;;;5025324;28;20008;-59
2021/10/16 04:15:21;;;;;;;;;;;;;;;;;;5025627;28;19925;-59
2021/10/16 04:17:49;;;;;;;;;;;;;;;;;;5024310;28;20407;-59
2021/10/16 04:20:16;;;;;;;;;;;;;;;;;;5022166;28;20415;-59
2021/10/16 04:22:43;;;;;;;;;;;;;;;;;;5027319;28;19999;-58
2021/10/16 04:25:10;;;;;;;;;;;;;;;;;;5030834;28;20301;-57
2021/10/16 04:27:37;;;;;;;;;;;;;;;;;;5022561;28;19926;-54
2021/10/16 04:30:04;;;;;;;;;;;;;;;;;;5026865;28;19929;-59
2021/10/16 04:32:31;;;;;;;;;;;;;;;;;;5027144;28;19961;-56
2021/10/16 04:34:58;;;;;;;;;;;;;;;;;;5027525;28;20402;-58
2021/10/16 04:37:25;;;;;;;;;;;;;;;;;;5030008;28;19925;-60
2021/10/16 04:39:52;;;;;;;;;;;;;;;;;;5030018;28;19932;-60
2021/10/16 04:42:19;;;;;;;;;;;;;;;;;;5026719;28;19926;-59
2021/10/16 04:44:46;;;;;;;;;;;;;;;;;;5028290;28;19932;-58
2021/10/16 04:47:13;;;;;;;;;;;;;;;;;;5029217;28;20324;-56
2021/10/16 04:49:40;;;;;;;;;;;;;;;;;;5029242;28;19933;-58
2021/10/16 04:52:07;;;;;;;;;;;;;;;;;;5027417;28;19925;-58
2021/10/16 04:54:34;;;;;;;;;;;;;;;;;;5028755;28;19928;-58
2021/10/16 04:57:01;;;;;;;;;;;;;;;;;;5030145;28;20451;-58
2021/10/16 04:59:28;;;;;;;;;;;;;;;;;;5031669;28;19931;-58
2021/10/16 05:01:55;;;;;;;;;;;;;;;;;;5024404;28;20027;-55
2021/10/16 05:04:22;;;;;;;;;;;;;;;;;;5028625;28;19968;-56
2021/10/16 05:06:49;;;;;;;;;;;;;;;;;;5029461;28;19925;-58
2021/10/16 05:09:16;;;;;;;;;;;;;;;;;;5028904;28;19925;-57
2021/10/16 05:11:43;;;;;;;;;;;;;;;;;;5028221;28;20393;-58
2021/10/16 05:14:10;;;;;;;;;;;;;;;;;;5030800;28;19947;-60
2021/10/16 05:16:37;;;;;;;;;;;;;;;;;;5030828;28;19969;-58
2021/10/16 05:19:04;;;;;;;;;;;;;;;;;;5029698;28;20028;-59
2021/10/16 05:21:31;;;;;;;;;;;;;;;;;;5032194;28;20385;-60
2021/10/16 05:23:58;;;;;;;;;;;;;;;;;;5031242;28;19925;-59
2021/10/16 05:26:25;;;;;;;;;;;;;;;;;;5030159;28;19929;-59
2021/10/16 05:28:55;;;;;;;;;;;;;;;;;;5027305;28;19995;-56
2021/10/16 05:31:22;;;;;;;;;;;;;;;;;;5030863;28;19925;-58
2021/10/16 05:33:49;;;;;;;;;;;;;;;;;;5031221;28;19929;-57
2021/10/16 05:36:16;;;;;;;;;;;;;;;;;;5025310;28;19932;-56
2021/10/16 05:38:42;;;;;;;;;;;;;;;;;;5026937;28;20380;-56
2021/10/16 05:41:09;;;;;;;;;;;;;;;;;;5029525;28;19937;-57
2021/10/16 05:43:36;;;;;;;;;;;;;;;;;;5029467;28;19941;-58
2021/10/16 05:46:03;;;;;;;;;;;;;;;;;;5028405;28;19929;-59
2021/10/16 05:48:31;;;;;;;;;;;;;;;;;;5027382;28;19925;-60
2021/10/16 05:50:58;;;;;;;;;;;;;;;;;;5028020;28;20412;-60
2021/10/16 05:53:24;;;;;;;;;;;;;;;;;;5023493;28;20023;-60
2021/10/16 05:55:51;;;;;;;;;;;;;;;;;;5028609;28;19933;-59
2021/10/16 05:58:18;;;;;;;;;;;;;;;;;;5030443;28;19925;-59
2021/10/16 06:00:45;;;;;;;;;;;;;;;;;;5027445;28;19937;-59
2021/10/16 06:03:12;;;;;;;;;;;;;;;;;;5029928;28;20547;-55
2021/10/16 06:05:39;;;;;;;;;;;;;;;;;;5028608;28;19932;-60
2021/10/16 06:08:06;;;;;;;;;;;;;;;;;;5030020;28;19925;-58
2021/10/16 06:10:33;;;;;;;;;;;;;;;;;;5022664;28;20385;-59
2021/10/16 06:13:00;;;;;;;;;;;;;;;;;;5028215;28;19947;-59
2021/10/16 06:15:27;;;;;;;;;;;;;;;;;;5027776;28;19925;-60
2021/10/16 06:17:54;;;;;;;;;;;;;;;;;;5029501;28;19935;-58
2021/10/16 06:20:22;;;;;;;;;;;;;;;;;;5027060;28;19933;-60
2021/10/16 06:22:49;;;;;;;;;;;;;;;;;;5026847;28;19925;-61
2021/10/16 06:25:16;;;;;;;;;;;;;;;;;;5029498;28;20385;-57
2021/10/16 06:27:43;;;;;;;;;;;;;;;;;;5028027;28;20292;-58
2021/10/16 06:30:10;;;;;;;;;;;;;;;;;;5028587;28;19925;-59
2021/10/16 06:32:37;;;;;;;;;;;;;;;;;;5029023;28;19948;-58
2021/10/16 06:35:05;;;;;;;;;;;;;;;;;;5029063;28;19925;-59
2021/10/16 06:37:32;;;;;;;;;;;;;;;;;;5026550;28;19925;-59
2021/10/16 06:39:59;;;;;;;;;;;;;;;;;;5026597;28;19933;-58
2021/10/16 06:42:26;;;;;;;;;;;;;;;;;;5028697;28;19937;-59
2021/10/16 06:44:53;;;;;;;;;;;;;;;;;;5024177;28;19925;-60
2021/10/16 06:47:20;;;;;;;;;;;;;;;;;;5024674;28;20243;-61
2021/10/16 06:49:47;;;;;;;;;;;;;;;;;;5030137;28;19929;-59
2021/10/16 06:52:14;;;;;;;;;;;;;;;;;;5030432;28;20149;-60
2021/10/16 06:54:41;;;;;;;;;;;;;;;;;;5025825;28;19932;-55
2021/10/16 06:57:08;;;;;;;;;;;;;;;;;;5024156;28;19929;-59
2021/10/16 06:59:35;;;;;;;;;;;;;;;;;;5026619;28;20019;-60
2021/10/16 07:02:02;;;;;;;;;;;;;;;;;;5028347;28;19930;-59
2021/10/16 07:04:29;;;;;;;;;;;;;;;;;;5032538;28;20292;-59
2021/10/16 07:06:56;;;;;;;;;;;;;;;;;;5027917;28;20285;-57
2021/10/16 07:09:23;;;;;;;;;;;;;;;;;;5026293;28;19925;-59
2021/10/16 07:11:50;;;;;;;;;;;;;;;;;;5028066;28;19932;-58
2021/10/16 07:14:17;;;;;;;;;;;;;;;;;;5024087;28;19931;-60
2021/10/16 07:16:44;;;;;;;;;;;;;;;;;;5028987;28;19925;-60
2021/10/16 07:19:11;;;;;;;;;;;;;;;;;;5022741;28;19979;-60
2021/10/16 07:21:38;;;;;;;;;;;;;;;;;;5029887;28;19925;-60
2021/10/16 07:24:05;;;;;;;;;;;;;;;;;;5025392;28;19929;-59
2021/10/16 07:26:32;;;;;;;;;;;;;;;;;;5023733;28;19926;-59
2021/10/16 07:28:59;;;;;;;;;;;;;;;;;;5026540;28;19932;-59
2021/10/16 07:31:28;;;;;;;;;;;;;;;;;;5025394;28;19940;-60
2021/10/16 07:33:56;;;;;;;;;;;;;;;;;;5027383;28;19933;-57
2021/10/16 07:36:23;;;;;;;;;;;;;;;;;;5027469;28;20012;-60
2021/10/16 07:38:50;;;;;;;;;;;;;;;;;;5025063;28;19925;-55
2021/10/16 07:41:17;;;;;;;;;;;;;;;;;;5025284;28;19933;-58
2021/10/16 07:43:44;;;;;;;;;;;;;;;;;;5025197;28;19925;-56
2021/10/16 07:46:11;;;;;;;;;;;;;;;;;;5026671;28;20407;-60
2021/10/16 07:48:38;;;;;;;;;;;;;;;;;;5026236;28;19925;-60
2021/10/16 07:51:05;;;;;;;;;;;;;;;;;;5026443;28;19929;-61
2021/10/16 07:53:32;;;;;;;;;;;;;;;;;;5023930;28;20314;-61
2021/10/16 07:55:59;;;;;;;;;;;;;;;;;;5029413;28;19925;-58
2021/10/16 07:58:26;;;;;;;;;;;;;;;;;;5033286;28;19929;-58
2021/10/16 08:00:52;;;;;;;;;;;;;;;;;;5026788;28;19933;-59
2021/10/16 08:03:19;;;;;;;;;;;;;;;;;;5026880;28;19925;-60
2021/10/16 08:05:47;;;;;;;;;;;;;;;;;;5030611;28;19933;-60
2021/10/16 08:08:14;;;;;;;;;;;;;;;;;;5030925;28;19929;-59
2021/10/16 08:10:41;;;;;;;;;;;;;;;;;;5025205;28;20364;-59
2021/10/16 08:13:08;;;;;;;;;;;;;;;;;;5030008;28;19931;-57
2021/10/16 08:15:35;;;;;;;;;;;;;;;;;;5029042;28;19932;-59
2021/10/16 08:18:02;;;;;;;;;;;;;;;;;;5030136;28;19932;-59
2021/10/16 08:20:29;;;;;;;;;;;;;;;;;;5032534;28;19952;-59
2021/10/16 08:22:56;;;;;;;;;;;;;;;;;;5030736;28;19933;-56
2021/10/16 08:25:23;;;;;;;;;;;;;;;;;;5030899;28;19925;-58
2021/10/16 08:27:50;;;;;;;;;;;;;;;;;;5029197;28;19983;-59
2021/10/16 08:30:17;;;;;;;;;;;;;;;;;;5029415;28;20287;-59
2021/10/16 08:32:44;;;;;;;;;;;;;;;;;;5030360;28;19925;-60
2021/10/16 08:35:11;;;;;;;;;;;;;;;;;;5027203;28;19933;-59
2021/10/16 08:37:38;;;;;;;;;;;;;;;;;;5026905;28;20300;-59
2021/10/16 08:40:05;;;;;;;;;;;;;;;;;;5030017;28;19964;-60
2021/10/16 08:42:32;;;;;;;;;;;;;;;;;;5020739;28;20297;-61
2021/10/16 08:44:59;;;;;;;;;;;;;;;;;;5028156;28;20446;-61
2021/10/16 08:47:26;;;;;;;;;;;;;;;;;;5031851;28;19983;-61
2021/10/16 08:49:53;;;;;;;;;;;;;;;;;;5032677;28;19931;-61
2021/10/16 08:52:20;;;;;;;;;;;;;;;;;;5031037;28;20328;-61
2021/10/16 08:54:47;;;;;;;;;;;;;;;;;;5028434;28;19932;-61
2021/10/16 08:57:14;;;;;;;;;;;;;;;;;;5031002;28;19929;-60
2021/10/16 08:59:41;;;;;;;;;;;;;;;;;;5031926;28;19925;-61
2021/10/16 09:02:08;;;;;;;;;;;;;;;;;;5032517;28;20008;-61
2021/10/16 09:04:35;;;;;;;;;;;;;;;;;;5027740;28;20427;-58
2021/10/16 09:07:02;;;;;;;;;;;;;;;;;;5030668;28;19935;-58
2021/10/16 09:09:29;;;;;;;;;;;;;;;;;;5029227;28;19931;-58
2021/10/16 09:11:56;;;;;;;;;;;;;;;;;;5031532;28;19929;-60
2021/10/16 09:14:23;;;;;;;;;;;;;;;;;;5030787;28;20412;-60
2021/10/16 09:16:51;;;;;;;;;;;;;;;;;;5031799;28;20064;-61
2021/10/16 09:19:18;;;;;;;;;;;;;;;;;;5030894;28;20020;-60
2021/10/16 09:21:45;;;;;;;;;;;;;;;;;;5030520;28;20015;-60
2021/10/16 09:24:12;;;;;;;;;;;;;;;;;;5029611;28;20417;-59
2021/10/16 09:26:39;;;;;;;;;;;;;;;;;;5030584;28;19925;-60
2021/10/16 09:29:06;;;;;;;;;;;;;;;;;;5028518;28;20389;-60
2021/10/16 09:31:33;;;;;;;;;;;;;;;;;;5027440;28;19929;-60
2021/10/16 09:34:00;;;;;;;;;;;;;;;;;;5025984;28;19932;-60
2021/10/16 09:36:27;;;;;;;;;;;;;;;;;;5030224;28;19929;-58
2021/10/16 09:38:54;;;;;;;;;;;;;;;;;;5025546;28;19925;-61
2021/10/16 09:41:20;;;;;;;;;;;;;;;;;;5023845;28;19925;-59
2021/10/16 09:43:47;;;;;;;;;;;;;;;;;;5054373;22;19932;-60
2021/10/16 09:46:14;;;;;;;;;;;;;;;;;;5045025;28;20015;-60
2021/10/16 09:48:41;;;;;;;;;;;;;;;;;;5045783;28;19925;-60
2021/10/16 09:51:08;;;;;;;;;;;;;;;;;;5049145;28;20320;-60
2021/10/16 09:53:35;;;;;;;;;;;;;;;;;;5047738;28;19929;-61
2021/10/16 09:56:02;;;;;;;;;;;;;;;;;;5049046;28;19924;-61
2021/10/16 09:58:29;;;;;;;;;;;;;;;;;;5049510;28;19925;-61
2021/10/16 10:00:58;;;;;;;;;;;;;;;;;;5045880;28;19928;-61
2021/10/16 10:03:25;;;;;;;;;;;;;;;;;;5048985;28;19924;-61
2021/10/16 10:05:52;;;;;;;;;;;;;;;;;;5046180;28;19925;-61
2021/10/16 10:08:19;;;;;;;;;;;;;;;;;;5046600;28;19925;-61
2021/10/16 10:10:46;;;;;;;;;;;;;;;;;;5046110;28;20192;-61
2021/10/16 10:13:13;;;;;;;;;;;;;;;;;;5044958;28;19931;-59
2021/10/16 10:15:40;;;;;;;;;;;;;;;;;;5049775;28;19932;-58
2021/10/16 10:20:48;;;;;;;;;;;;;;;;;;5050340;28;19968;-61
2021/10/16 10:23:15;;;;;;;;;;;;;;;;;;5048270;28;19933;-60
2021/10/16 10:25:42;;;;;;;;;;;;;;;;;;5049520;28;19933;-61
2021/10/16 10:28:08;;;;;;;;;;;;;;;;;;5052123;28;20273;-61
2021/10/16 10:30:35;;;;;;;;;;;;;;;;;;5047711;28;19925;-60
2021/10/16 10:33:02;;;;;;;;;;;;;;;;;;5048206;28;19934;-61
2021/10/16 10:35:29;;;;;;;;;;;;;;;;;;5048878;28;19947;-60
2021/10/16 10:37:56;;;;;;;;;;;;;;;;;;5045701;28;19972;-61
2021/10/16 10:40:23;;;;;;;;;;;;;;;;;;5047999;28;19929;-61
2021/10/16 10:42:50;;;;;;;;;;;;;;;;;;5046921;28;19924;-59
2021/10/16 10:45:17;;;;;;;;;;;;;;;;;;5049363;28;19932;-61
2021/10/16 10:47:44;;;;;;;;;;;;;;;;;;5049238;28;19931;-61
2021/10/16 10:50:11;;;;;;;;;;;;;;;;;;5047035;28;20321;-61
2021/10/16 10:52:38;;;;;;;;;;;;;;;;;;5045918;28;19932;-61
2021/10/16 10:55:05;;;;;;;;;;;;;;;;;;5046498;28;19942;-61
2021/10/16 10:57:32;;;;;;;;;;;;;;;;;;5040283;28;19928;-60
2021/10/16 11:00:01;;;;;;;;;;;;;;;;;;5039584;28;19926;-61
2021/10/16 11:02:28;;;;;;;;;;;;;;;;;;5047443;28;19972;-60
2021/10/16 11:04:55;;;;;;;;;;;;;;;;;;5045103;28;19925;-60
2021/10/16 11:07:22;;;;;;;;;;;;;;;;;;5043634;28;19929;-60
2021/10/16 11:09:49;;;;;;;;;;;;;;;;;;5044248;28;19925;-60
2021/10/16 11:12:16;;;;;;;;;;;;;;;;;;5049072;28;19925;-60
2021/10/16 11:14:43;;;;;;;;;;;;;;;;;;5049343;28;19948;-60
2021/10/16 11:17:10;;;;;;;;;;;;;;;;;;5048565;28;19936;-60
2021/10/16 11:19:37;;;;;;;;;;;;;;;;;;5044652;28;19935;-60
2021/10/16 11:22:04;;;;;;;;;;;;;;;;;;5047892;28;19925;-61
2021/10/16 11:24:31;;;;;;;;;;;;;;;;;;5048703;28;19932;-61
2021/10/16 11:26:58;;;;;;;;;;;;;;;;;;5049325;28;19975;-61
2021/10/16 11:29:25;;;;;;;;;;;;;;;;;;5045112;28;19931;-61
2021/10/16 11:31:52;;;;;;;;;;;;;;;;;;5045767;28;19925;-61
2021/10/16 11:34:19;;;;;;;;;;;;;;;;;;5046797;28;20532;-61
2021/10/16 11:36:46;;;;;;;;;;;;;;;;;;5047662;28;19925;-61
2021/10/16 11:39:15;;;;;;;;;;;;;;;;;;5047929;28;19925;-61
2021/10/16 11:41:44;;;;;;;;;;;;;;;;;;5047045;28;19970;-61
2021/10/16 11:44:11;;;;;;;;;;;;;;;;;;5048436;28;19939;-58
2021/10/16 11:46:38;;;;;;;;;;;;;;;;;;5044887;28;19932;-61
2021/10/16 11:49:05;;;;;;;;;;;;;;;;;;5047438;28;19975;-60
2021/10/16 11:51:32;;;;;;;;;;;;;;;;;;5049863;28;20031;-64
2021/10/16 11:53:59;;;;;;;;;;;;;;;;;;5048273;28;19932;-60
2021/10/16 11:56:28;;;;;;;;;;;;;;;;;;5044896;28;19929;-60
2021/10/16 11:58:55;;;;;;;;;;;;;;;;;;5046954;28;19925;-60
2021/10/16 12:01:22;;;;;;;;;;;;;;;;;;5049756;28;19950;-60
2021/10/16 12:03:49;;;;;;;;;;;;;;;;;;5045867;28;19925;-60
2021/10/16 12:06:16;;;;;;;;;;;;;;;;;;5046184;28;19985;-60
2021/10/16 12:08:43;;;;;;;;;;;;;;;;;;5048940;28;19925;-60
2021/10/16 12:11:10;;;;;;;;;;;;;;;;;;5048921;28;19931;-61
2021/10/16 12:13:37;;;;;;;;;;;;;;;;;;5048548;28;19936;-62
2021/10/16 12:16:04;;;;;;;;;;;;;;;;;;5049092;28;20008;-61
2021/10/16 12:18:31;;;;;;;;;;;;;;;;;;5045532;28;19924;-61
2021/10/16 12:20:58;;;;;;;;;;;;;;;;;;5047001;28;20380;-60
2021/10/16 12:23:25;;;;;;;;;;;;;;;;;;5047089;28;19925;-61
2021/10/16 12:25:52;;;;;;;;;;;;;;;;;;5048471;28;20304;-61
2021/10/16 12:28:19;;;;;;;;;;;;;;;;;;5047653;28;19932;-61
2021/10/16 12:30:46;;;;;;;;;;;;;;;;;;5047455;28;19946;-61
2021/10/16 12:33:12;;;;;;;;;;;;;;;;;;5046328;28;20313;-61
2021/10/16 12:35:40;;;;;;;;;;;;;;;;;;5046648;28;19932;-61
2021/10/16 12:38:06;;;;;;;;;;;;;;;;;;5048018;28;20336;-61
2021/10/16 12:40:33;;;;;;;;;;;;;;;;;;5047414;28;19931;-59
2021/10/16 12:43:00;;;;;;;;;;;;;;;;;;5050468;28;19944;-61
2021/10/16 12:45:27;;;;;;;;;;;;;;;;;;5051202;28;19933;-61
2021/10/16 12:47:54;;;;;;;;;;;;;;;;;;5048210;28;19924;-60
2021/10/16 12:50:21;;;;;;;;;;;;;;;;;;5043930;28;19925;-68
2021/10/16 12:52:48;;;;;;;;;;;;;;;;;;5049838;28;20308;-61
2021/10/16 12:55:15;;;;;;;;;;;;;;;;;;5044810;28;19925;-60
2021/10/16 12:57:42;;;;;;;;;;;;;;;;;;5047555;28;20011;-61
2021/10/16 13:00:09;;;;;;;;;;;;;;;;;;5048566;28;19933;-60
2021/10/16 13:02:36;;;;;;;;;;;;;;;;;;5048202;28;19928;-61
2021/10/16 13:05:03;;;;;;;;;;;;;;;;;;5046062;28;19925;-60
2021/10/16 13:07:30;;;;;;;;;;;;;;;;;;5045183;28;20272;-60
2021/10/16 13:09:57;;;;;;;;;;;;;;;;;;5050034;28;20369;-61
2021/10/16 13:12:24;;;;;;;;;;;;;;;;;;5050096;28;20270;-62
2021/10/16 13:14:51;;;;;;;;;;;;;;;;;;5046395;28;19925;-60
2021/10/16 13:17:18;;;;;;;;;;;;;;;;;;5049614;28;19929;-61
2021/10/16 13:19:45;;;;;;;;;;;;;;;;;;5049397;28;20430;-60
2021/10/16 13:22:12;;;;;;;;;;;;;;;;;;5051234;28;19929;-61
2021/10/16 13:24:39;;;;;;;;;;;;;;;;;;5047629;28;19924;-60
2021/10/16 13:27:06;;;;;;;;;;;;;;;;;;5048396;28;19924;-58
2021/10/16 13:29:33;;;;;;;;;;;;;;;;;;5047093;28;19932;-60
2021/10/16 13:32:00;;;;;;;;;;;;;;;;;;5049903;28;19928;-62
2021/10/16 13:34:26;;;;;;;;;;;;;;;;;;5047345;28;19924;-61
2021/10/16 13:36:53;;;;;;;;;;;;;;;;;;5049872;28;19932;-61
2021/10/16 13:39:20;;;;;;;;;;;;;;;;;;5050098;28;19946;-60
2021/10/16 13:41:47;;;;;;;;;;;;;;;;;;5046681;28;19924;-61
2021/10/16 13:44:16;;;;;;;;;;;;;;;;;;5047459;28;19928;-61
2021/10/16 13:46:43;;;;;;;;;;;;;;;;;;5048214;28;19924;-62
2021/10/16 13:49:10;;;;;;;;;;;;;;;;;;5049925;28;19971;-62
2021/10/16 13:51:37;;;;;;;;;;;;;;;;;;5047537;28;19924;-60
2021/10/16 13:54:07;;;;;;;;;;;;;;;;;;5046385;28;20291;-61
2021/10/16 13:56:34;;;;;;;;;;;;;;;;;;5048730;28;19929;-60
2021/10/16 13:59:01;;;;;;;;;;;;;;;;;;5047730;28;19929;-61
2021/10/16 14:01:28;;;;;;;;;;;;;;;;;;5046509;28;19968;-61
2021/10/16 14:03:55;;;;;;;;;;;;;;;;;;5047458;28;20008;-61
2021/10/16 14:06:22;;;;;;;;;;;;;;;;;;5046520;28;20879;-61
2021/10/16 14:08:49;;;;;;;;;;;;;;;;;;5049442;28;20293;-62
2021/10/16 14:11:16;;;;;;;;;;;;;;;;;;5046822;28;19929;-61
2021/10/16 14:13:43;;;;;;;;;;;;;;;;;;5046479;28;19932;-61
2021/10/16 14:16:13;;;;;;;;;;;;;;;;;;5046908;28;19928;-60
2021/10/16 14:18:39;;;;;;;;;;;;;;;;;;5050695;28;19925;-61
2021/10/16 14:21:06;;;;;;;;;;;;;;;;;;5048973;28;19924;-61
2021/10/16 14:23:33;;;;;;;;;;;;;;;;;;5048163;28;20004;-58
2021/10/16 14:26:01;;;;;;;;;;;;;;;;;;5046863;28;19948;-60
2021/10/16 14:28:29;;;;;;;;;;;;;;;;;;5048114;28;19929;-61
2021/10/16 14:30:56;;;;;;;;;;;;;;;;;;5048664;28;19925;-61
2021/10/16 14:33:23;;;;;;;;;;;;;;;;;;5047257;28;20302;-59
2021/10/16 14:35:50;;;;;;;;;;;;;;;;;;5048569;28;20016;-62
2021/10/16 14:38:17;;;;;;;;;;;;;;;;;;5050411;28;19931;-62
2021/10/16 14:40:44;;;;;;;;;;;;;;;;;;5046897;28;19925;-59
2021/10/16 14:43:11;;;;;;;;;;;;;;;;;;5048250;28;19932;-61
2021/10/16 14:45:38;;;;;;;;;;;;;;;;;;5049509;28;19929;-61
2021/10/16 14:48:05;;;;;;;;;;;;;;;;;;5047140;28;19931;-61
2021/10/16 14:50:32;;;;;;;;;;;;;;;;;;5047932;28;20305;-61
2021/10/16 14:52:59;;;;;;;;;;;;;;;;;;5046563;28;19928;-61
2021/10/16 14:55:28;;;;;;;;;;;;;;;;;;5048277;28;19925;-62
2021/10/16 14:57:55;;;;;;;;;;;;;;;;;;5045934;28;19926;-62
2021/10/16 15:00:22;;;;;;;;;;;;;;;;;;5048410;28;19933;-61
2021/10/16 15:02:49;;;;;;;;;;;;;;;;;;5047441;28;19932;-62
2021/10/16 15:05:16;;;;;;;;;;;;;;;;;;5043025;28;20610;-62
2021/10/16 15:07:43;;;;;;;;;;;;;;;;;;5045195;28;19925;-61
2021/10/16 15:10:10;;;;;;;;;;;;;;;;;;5042721;28;20016;-62
2021/10/16 15:12:37;;;;;;;;;;;;;;;;;;5046990;28;20304;-62
2021/10/16 15:15:04;;;;;;;;;;;;;;;;;;5047798;28;19925;-62
2021/10/16 15:17:31;;;;;;;;;;;;;;;;;;5048189;28;20403;-62
2021/10/16 15:19:59;;;;;;;;;;;;;;;;;;5045556;28;19929;-61
2021/10/16 15:22:26;;;;;;;;;;;;;;;;;;5045293;28;20719;-63
2021/10/16 15:24:53;;;;;;;;;;;;;;;;;;5048662;28;19925;-62
2021/10/16 15:27:20;;;;;;;;;;;;;;;;;;5047770;28;20004;-62
2021/10/16 15:29:47;;;;;;;;;;;;;;;;;;5045545;28;19925;-60
2021/10/16 15:32:14;;;;;;;;;;;;;;;;;;5044412;28;19932;-63
2021/10/16 15:34:41;;;;;;;;;;;;;;;;;;5043665;28;19928;-60
2021/10/16 15:37:08;;;;;;;;;;;;;;;;;;5038297;28;20351;-59
2021/10/16 15:39:35;;;;;;;;;;;;;;;;;;5040683;28;19925;-61
2021/10/16 15:42:02;;;;;;;;;;;;;;;;;;5044910;28;19925;-62
2021/10/16 15:44:29;;;;;;;;;;;;;;;;;;5073789;22;19929;-66
2021/10/16 15:46:56;;;;;;;;;;;;;;;;;;5042697;28;20295;-67
2021/10/16 15:49:23;;;;;;;;;;;;;;;;;;5048415;28;20027;-66
2021/10/16 15:51:50;;;;;;;;;;;;;;;;;;5041616;28;19932;-67
2021/10/16 15:54:17;;;;;;;;;;;;;;;;;;5043784;28;19924;-67
2021/10/16 15:56:44;;;;;;;;;;;;;;;;;;5039958;28;19932;-66
2021/10/16 15:59:11;;;;;;;;;;;;;;;;;;5046332;28;19939;-67
2021/10/16 16:01:38;;;;;;;;;;;;;;;;;;5046818;28;20415;-68
2021/10/16 16:04:05;;;;;;;;;;;;;;;;;;5045984;28;19925;-68
2021/10/16 16:06:32;;;;;;;;;;;;;;;;;;5040631;28;19952;-68
2021/10/16 16:08:59;;;;;;;;;;;;;;;;;;5046281;28;19928;-68
2021/10/16 16:11:26;;;;;;;;;;;;;;;;;;5045284;28;20399;-68
2021/10/16 16:13:53;;;;;;;;;;;;;;;;;;5040715;28;19929;-68
2021/10/16 16:16:20;;;;;;;;;;;;;;;;;;5042123;28;20378;-67
2021/10/16 16:18:47;;;;;;;;;;;;;;;;;;5046853;28;20039;-67
2021/10/16 16:21:14;;;;;;;;;;;;;;;;;;5049293;28;20312;-68
2021/10/16 16:23:41;;;;;;;;;;;;;;;;;;5044757;28;20301;-67
2021/10/16 16:26:08;;;;;;;;;;;;;;;;;;5048383;28;19975;-67
2021/10/16 16:28:35;;;;;;;;;;;;;;;;;;5047508;28;19929;-68
2021/10/16 16:31:02;;;;;;;;;;;;;;;;;;5049432;28;20019;-66
2021/10/16 16:33:30;;;;;;;;;;;;;;;;;;5047385;28;20373;-66
2021/10/16 16:35:57;;;;;;;;;;;;;;;;;;5042569;28;19983;-69
2021/10/16 16:38:24;;;;;;;;;;;;;;;;;;5051036;28;19924;-68
2021/10/16 16:40:51;;;;;;;;;;;;;;;;;;5048308;28;19940;-67
2021/10/16 16:43:18;;;;;;;;;;;;;;;;;;5048362;28;19925;-68
2021/10/16 16:45:45;;;;;;;;;;;;;;;;;;5046966;28;20513;-68